Arcadia — SY7849 — position and weather

sailwx.info

Track history (hours):
 
Tides and Currents Weather Stations Pressure Air Temp Water Temp Dewpoint Dewpoint Depression Visibility Wind Speed Wind Dir Waves Ship Positions

Arcadia

Last reported at 2018-Jul-20 15:30 UTC. Time now 2018-Jul-20 15:54 UTC.
Position N 37°49' E 023°12'.

Length 76 m; draft 3.5 m.

Type: Tanker. MMSI: 240560000.

Date/timePositionNaut miles runAvg speedWind from/ knotsBaromVisibWave heightAir tempDewpointWater temp
2018-Jul-20 15:30N 37°49' E 023°12'5 9.3
2018-Jul-20 15:00N 37°45' E 023°15'5 9.0
2018-Jul-20 14:30N 37°41' E 023°18'4 8.8
2018-Jul-20 14:00N 37°40' E 023°23'5 9.3
2018-Jul-20 13:30N 37°38' E 023°28'5 9.1
2018-Jul-20 13:00N 37°35' E 023°33'5 9.1
2018-Jul-20 12:30N 37°31' E 023°35'7 8.9
2018-Jul-20 11:41N 37°23' E 023°36'87 8.8
2018-Jul-20 01:51N 35°59' E 023°58'86 3.1
2018-Jul-18 22:03N 37°22' E 023°36'0 7.9
2018-Jul-18 22:01N 37°23' E 023°36'4 8.3
2018-Jul-18 21:30N 37°27' E 023°35'4 8.0
2018-Jul-18 21:00N 37°31' E 023°33'4 8.1
2018-Jul-18 20:30N 37°34' E 023°30'4 8.2
2018-Jul-18 20:00N 37°37' E 023°27'4 8.0
2018-Jul-18 19:30N 37°39' E 023°23'4 7.9
2018-Jul-18 19:00N 37°40' E 023°18'4 8.0
2018-Jul-18 18:30N 37°44' E 023°16'4 8.3
2018-Jul-18 18:01N 37°48' E 023°13'4 8.1
2018-Jul-18 17:30N 37°51' E 023°10'4 8.5
2018-Jul-18 17:00N 37°54' E 023°06'1 2.5
2018-Jul-18 16:28N 37°55' E 023°05'0 0.0
2018-Jul-18 15:58N 37°55' E 023°05'0 0.0
2018-Jul-18 15:28N 37°55' E 023°05'0 0.0
2018-Jul-18 14:58N 37°55' E 023°05'0 0.0
2018-Jul-18 14:28N 37°55' E 023°05'0 0.0
2018-Jul-18 13:28N 37°55' E 023°05'0 0.0
2018-Jul-18 12:58N 37°55' E 023°05'0 0.0
2018-Jul-18 12:28N 37°55' E 023°05'0 0.0
2018-Jul-18 11:58N 37°55' E 023°05'0 0.0
2018-Jul-18 11:28N 37°55' E 023°05'0 0.0
2018-Jul-18 10:28N 37°55' E 023°05'0 0.0
2018-Jul-18 09:58N 37°55' E 023°05'0 0.0
2018-Jul-18 09:28N 37°55' E 023°05'0 0.0
2018-Jul-18 08:58N 37°55' E 023°05'0 0.0
2018-Jul-18 08:28N 37°55' E 023°05'0 0.0
2018-Jul-18 07:58N 37°55' E 023°05'0 0.0
2018-Jul-18 07:28N 37°55' E 023°05'0 0.0
2018-Jul-18 06:58N 37°55' E 023°05'0 0.0
2018-Jul-18 06:28N 37°55' E 023°05'0 0.0
2018-Jul-18 05:58N 37°55' E 023°05'0 0.0
2018-Jul-18 05:28N 37°55' E 023°05'0 0.0
2018-Jul-18 04:58N 37°55' E 023°05'0 0.0
2018-Jul-18 04:28N 37°55' E 023°05'0 0.0
2018-Jul-18 03:58N 37°55' E 023°05'0 0.0
2018-Jul-18 03:28N 37°55' E 023°05'0 0.0
2018-Jul-18 02:58N 37°55' E 023°05'0 0.0
2018-Jul-18 02:28N 37°55' E 023°05'0 0.0
2018-Jul-18 01:58N 37°55' E 023°05'0 0.0
2018-Jul-18 01:28N 37°55' E 023°05'0 0.0
2018-Jul-18 00:58N 37°55' E 023°05'0 0.0
2018-Jul-18 00:28N 37°55' E 023°05'0 0.0
2018-Jul-17 23:58N 37°55' E 023°05'0 0.0
2018-Jul-17 23:28N 37°55' E 023°05'0 0.0
2018-Jul-17 22:58N 37°55' E 023°05'0 0.0
2018-Jul-17 22:28N 37°55' E 023°05'0 0.0
2018-Jul-17 21:58N 37°55' E 023°05'0 0.0
2018-Jul-17 21:28N 37°55' E 023°05'0 0.0
2018-Jul-17 20:58N 37°55' E 023°05'0 0.0
2018-Jul-17 20:28N 37°55' E 023°05'0 0.0
2018-Jul-17 19:58N 37°55' E 023°05'0 0.0
2018-Jul-17 19:28N 37°55' E 023°05'0 0.0
2018-Jul-17 18:58N 37°55' E 023°05'0 0.0
2018-Jul-17 18:28N 37°55' E 023°05'0 0.0
2018-Jul-17 17:58N 37°55' E 023°05'0 0.0
2018-Jul-17 17:28N 37°55' E 023°05'0 0.0
2018-Jul-17 16:58N 37°55' E 023°05'0 0.0
2018-Jul-17 16:28N 37°55' E 023°05'0 0.1
2018-Jul-17 16:00N 37°55' E 023°05'1 1.3
2018-Jul-17 15:29N 37°55' E 023°06'0 0.1
2018-Jul-17 14:59N 37°55' E 023°06'0 0.1
2018-Jul-17 14:29N 37°55' E 023°06'0 0.0
2018-Jul-17 13:59N 37°55' E 023°06'0 0.0
2018-Jul-17 13:29N 37°55' E 023°06'0 0.0
2018-Jul-17 12:59N 37°55' E 023°06'0 0.0
2018-Jul-17 12:29N 37°55' E 023°06'0 0.0
2018-Jul-17 11:59N 37°55' E 023°06'0 0.3
2018-Jul-17 11:30N 37°55' E 023°06'4 7.4
2018-Jul-17 11:00N 37°52' E 023°09'4 8.2
2018-Jul-17 10:30N 37°48' E 023°12'5 9.0
2018-Jul-17 10:00N 37°45' E 023°15'4 8.9
2018-Jul-17 09:30N 37°41' E 023°18'4 9.0
2018-Jul-17 09:00N 37°39' E 023°23'4 9.0
2018-Jul-17 08:30N 37°38' E 023°28'4 8.7
2018-Jul-17 08:00N 37°35' E 023°32'4 8.5
2018-Jul-17 07:30N 37°31' E 023°35'4 8.9
2018-Jul-17 07:00N 37°27' E 023°36'4 8.9
2018-Jul-17 06:30N 37°22' E 023°36'5 8.9
2018-Jul-17 06:00N 37°18' E 023°37'83 8.9
2018-Jul-16 20:38N 35°57' E 023°58'1 8.9
2018-Jul-16 20:30N 35°55' E 023°58'12 8.7
2018-Jul-16 19:08N 35°44' E 024°01'1 8.6
2018-Jul-16 19:00N 35°42' E 024°01'4 8.7
2018-Jul-16 18:30N 35°38' E 024°02'113 2.7
2018-Jul-15 01:12N 37°29' E 023°35'2 8.5
2018-Jul-15 01:00N 37°31' E 023°35'4 8.4
2018-Jul-15 00:30N 37°35' E 023°33'4 8.2
2018-Jul-15 00:00N 37°38' E 023°29'4 8.2
2018-Jul-14 23:30N 37°39' E 023°24'4 8.0
2018-Jul-14 23:00N 37°40' E 023°19'4 7.6
2018-Jul-14 22:28N 37°44' E 023°17'4 8.3
2018-Jul-14 22:00N 37°47' E 023°14'4 8.1
2018-Jul-14 21:30N 37°50' E 023°11'4 8.4
2018-Jul-14 21:00N 37°53' E 023°08'3 4.7
2018-Jul-14 20:28N 37°55' E 023°05'0 0.0
2018-Jul-14 19:58N 37°55' E 023°05'0 0.0
2018-Jul-14 19:28N 37°55' E 023°05'0 0.0
2018-Jul-14 18:58N 37°55' E 023°05'0 0.0
2018-Jul-14 18:28N 37°55' E 023°05'0 0.0
2018-Jul-14 17:58N 37°55' E 023°05'0 0.0
2018-Jul-14 17:28N 37°55' E 023°05'0 0.0
2018-Jul-14 16:58N 37°55' E 023°05'0 0.0
2018-Jul-14 16:28N 37°55' E 023°05'0 0.0
2018-Jul-14 15:58N 37°55' E 023°05'0 0.0
2018-Jul-14 15:28N 37°55' E 023°05'0 0.0
2018-Jul-14 14:58N 37°55' E 023°05'0 0.0
2018-Jul-14 14:28N 37°55' E 023°05'0 0.0
2018-Jul-14 13:28N 37°55' E 023°05'0 0.0
2018-Jul-14 12:58N 37°55' E 023°05'0 0.0
2018-Jul-14 12:28N 37°55' E 023°05'0 0.0
2018-Jul-14 11:58N 37°55' E 023°05'0 0.0
2018-Jul-14 11:28N 37°55' E 023°05'0 0.0
2018-Jul-14 10:58N 37°55' E 023°05'0 0.0
2018-Jul-14 10:28N 37°55' E 023°05'0 0.0
2018-Jul-14 09:58N 37°55' E 023°05'0 0.0
2018-Jul-14 09:28N 37°55' E 023°05'0 0.0
2018-Jul-14 08:58N 37°55' E 023°05'0 0.0
2018-Jul-14 08:28N 37°55' E 023°05'0 0.0
2018-Jul-14 07:58N 37°55' E 023°05'0 0.0
2018-Jul-14 07:28N 37°55' E 023°05'0 0.0
2018-Jul-14 06:58N 37°55' E 023°05'0 0.0
2018-Jul-14 06:28N 37°55' E 023°05'0 0.0
2018-Jul-14 05:58N 37°55' E 023°05'0 0.0
2018-Jul-14 05:28N 37°55' E 023°05'0 0.0
2018-Jul-14 04:58N 37°55' E 023°05'0 0.0
2018-Jul-14 04:28N 37°55' E 023°05'0 0.0
2018-Jul-14 03:58N 37°55' E 023°05'0 0.0
2018-Jul-14 03:28N 37°55' E 023°05'0 0.0
2018-Jul-14 02:58N 37°55' E 023°05'0 0.0
2018-Jul-14 02:28N 37°55' E 023°05'0 0.0
2018-Jul-14 01:58N 37°55' E 023°05'0 0.0
2018-Jul-14 01:28N 37°55' E 023°05'0 0.0
2018-Jul-14 01:01N 37°55' E 023°05'0 0.7
2018-Jul-14 00:30N 37°55' E 023°06'1 1.9
2018-Jul-14 00:00N 37°55' E 023°04'0 0.1
2018-Jul-13 23:30N 37°55' E 023°04'0 0.1
2018-Jul-13 23:00N 37°55' E 023°04'0 0.0
2018-Jul-13 22:30N 37°55' E 023°04'0 0.1
2018-Jul-13 22:00N 37°55' E 023°04'0 0.1
2018-Jul-13 21:30N 37°55' E 023°04'0 0.1
2018-Jul-13 21:00N 37°55' E 023°04'0 0.0
2018-Jul-13 20:30N 37°55' E 023°04'0 0.0
2018-Jul-13 20:00N 37°55' E 023°04'0 0.0
2018-Jul-13 19:30N 37°55' E 023°04'0 0.0
2018-Jul-13 19:00N 37°55' E 023°04'0 0.0
2018-Jul-13 18:30N 37°55' E 023°04'0 0.0
2018-Jul-13 18:00N 37°55' E 023°04'0 0.0
2018-Jul-13 17:30N 37°55' E 023°04'0 0.0
2018-Jul-13 17:00N 37°55' E 023°04'0 0.0
2018-Jul-13 16:30N 37°55' E 023°04'0 0.0
2018-Jul-13 16:00N 37°55' E 023°04'0 0.0
2018-Jul-13 15:30N 37°55' E 023°04'0 0.2
2018-Jul-13 15:00N 37°55' E 023°04'0 0.0
2018-Jul-13 14:00N 37°55' E 023°04'0 0.1
2018-Jul-13 13:30N 37°55' E 023°04'0 0.0
2018-Jul-13 13:00N 37°55' E 023°04'0 0.0
2018-Jul-13 12:30N 37°55' E 023°04'0 0.0
2018-Jul-13 12:00N 37°55' E 023°04'0 0.0
2018-Jul-13 11:30N 37°55' E 023°04'0 0.0
2018-Jul-13 10:54N 37°55' E 023°04'0 0.0
2018-Jul-13 10:30N 37°55' E 023°04'0 0.0
2018-Jul-13 10:00N 37°55' E 023°04'0 0.0
2018-Jul-13 09:30N 37°55' E 023°04'0 0.0
2018-Jul-13 09:00N 37°55' E 023°04'0 0.0
2018-Jul-13 08:30N 37°55' E 023°04'0 0.0
2018-Jul-13 08:00N 37°55' E 023°04'0 0.0
2018-Jul-13 07:30N 37°55' E 023°04'0 0.0
2018-Jul-13 07:00N 37°55' E 023°04'0 0.0
2018-Jul-13 06:30N 37°55' E 023°04'0 0.0
2018-Jul-13 06:00N 37°55' E 023°04'0 0.0
2018-Jul-13 05:30N 37°55' E 023°04'0 0.0
2018-Jul-13 05:00N 37°55' E 023°04'0 0.0
2018-Jul-13 04:30N 37°55' E 023°04'0 0.0
2018-Jul-13 04:00N 37°55' E 023°04'0 0.0
2018-Jul-13 03:30N 37°55' E 023°04'0 0.0
2018-Jul-13 03:00N 37°55' E 023°04'0 0.0
2018-Jul-13 02:30N 37°55' E 023°04'0 0.0
2018-Jul-13 02:00N 37°55' E 023°04'0 0.1
2018-Jul-13 01:27N 37°55' E 023°04'0 0.0
2018-Jul-13 01:00N 37°55' E 023°04'0 0.0
2018-Jul-13 00:30N 37°55' E 023°04'0 0.0
2018-Jul-13 00:00N 37°55' E 023°04'0 0.0
2018-Jul-12 23:30N 37°55' E 023°04'0 0.0
2018-Jul-12 23:00N 37°55' E 023°04'0 0.0
2018-Jul-12 22:30N 37°55' E 023°04'0 0.0
2018-Jul-12 22:00N 37°55' E 023°04'0 0.0
2018-Jul-12 21:30N 37°55' E 023°04'0 0.0
2018-Jul-12 21:00N 37°55' E 023°04'0 0.1
2018-Jul-12 20:30N 37°55' E 023°04'0 0.0
2018-Jul-12 20:00N 37°55' E 023°04'0 0.0
2018-Jul-12 19:30N 37°55' E 023°04'0 0.0
2018-Jul-12 19:00N 37°55' E 023°04'0 0.0
2018-Jul-12 18:30N 37°55' E 023°04'0 0.1
2018-Jul-12 18:00N 37°54' E 023°04'0 0.1
2018-Jul-12 17:30N 37°55' E 023°04'0 0.1
2018-Jul-12 17:00N 37°55' E 023°04'0 0.1
2018-Jul-12 16:31N 37°55' E 023°04'0 0.0
2018-Jul-12 15:59N 37°55' E 023°04'0 0.0
2018-Jul-12 15:31N 37°55' E 023°04'0 0.0
2018-Jul-12 15:00N 37°55' E 023°04'1 2.1
2018-Jul-12 14:30N 37°54' E 023°06'4 8.5
2018-Jul-12 14:01N 37°52' E 023°10'4 9.0
2018-Jul-12 13:31N 37°48' E 023°13'5 9.0
2018-Jul-12 13:00N 37°44' E 023°16'4 9.0
2018-Jul-12 12:30N 37°40' E 023°19'4 8.9
2018-Jul-12 12:00N 37°39' E 023°24'4 8.7
2018-Jul-12 11:30N 37°37' E 023°29'4 8.8
2018-Jul-12 11:00N 37°34' E 023°33'4 8.1
2018-Jul-12 10:31N 37°31' E 023°35'4 8.5
2018-Jul-12 09:59N 37°26' E 023°36'4 8.5
2018-Jul-12 09:28N 37°22' E 023°37'  
Track history (hours):
 
Tides and Currents Weather Stations Pressure Air Temp Water Temp Dewpoint Dewpoint Depression Visibility Wind Speed Wind Dir Waves Ship Positions

Arcadia

Last reported at 2018-Jul-20 15:30 UTC. Time now 2018-Jul-20 15:54 UTC.
Position N 37°49' E 023°12'.

Length 76 m; draft 3.5 m.

Type: Tanker. MMSI: 240560000.

Date/timePositionNaut miles runAvg speedWind from/ knotsBaromVisibWave heightAir tempDewpointWater temp
2018-Jul-20 15:30N 37°49' E 023°12'5 9.3
2018-Jul-20 15:00N 37°45' E 023°15'5 9.0
2018-Jul-20 14:30N 37°41' E 023°18'4 8.8
2018-Jul-20 14:00N 37°40' E 023°23'5 9.3
2018-Jul-20 13:30N 37°38' E 023°28'5 9.1
2018-Jul-20 13:00N 37°35' E 023°33'5 9.1
2018-Jul-20 12:30N 37°31' E 023°35'7 8.9
2018-Jul-20 11:41N 37°23' E 023°36'87 8.8
2018-Jul-20 01:51N 35°59' E 023°58'86 3.1
2018-Jul-18 22:03N 37°22' E 023°36'0 7.9
2018-Jul-18 22:01N 37°23' E 023°36'4 8.3
2018-Jul-18 21:30N 37°27' E 023°35'4 8.0
2018-Jul-18 21:00N 37°31' E 023°33'4 8.1
2018-Jul-18 20:30N 37°34' E 023°30'4 8.2
2018-Jul-18 20:00N 37°37' E 023°27'4 8.0
2018-Jul-18 19:30N 37°39' E 023°23'4 7.9
2018-Jul-18 19:00N 37°40' E 023°18'4 8.0
2018-Jul-18 18:30N 37°44' E 023°16'4 8.3
2018-Jul-18 18:01N 37°48' E 023°13'4 8.1
2018-Jul-18 17:30N 37°51' E 023°10'4 8.5
2018-Jul-18 17:00N 37°54' E 023°06'1 2.5
2018-Jul-18 16:28N 37°55' E 023°05'0 0.0
2018-Jul-18 15:58N 37°55' E 023°05'0 0.0
2018-Jul-18 15:28N 37°55' E 023°05'0 0.0
2018-Jul-18 14:58N 37°55' E 023°05'0 0.0
2018-Jul-18 14:28N 37°55' E 023°05'0 0.0
2018-Jul-18 13:28N 37°55' E 023°05'0 0.0
2018-Jul-18 12:58N 37°55' E 023°05'0 0.0
2018-Jul-18 12:28N 37°55' E 023°05'0 0.0
2018-Jul-18 11:58N 37°55' E 023°05'0 0.0
2018-Jul-18 11:28N 37°55' E 023°05'0 0.0
2018-Jul-18 10:28N 37°55' E 023°05'0 0.0
2018-Jul-18 09:58N 37°55' E 023°05'0 0.0
2018-Jul-18 09:28N 37°55' E 023°05'0 0.0
2018-Jul-18 08:58N 37°55' E 023°05'0 0.0
2018-Jul-18 08:28N 37°55' E 023°05'0 0.0
2018-Jul-18 07:58N 37°55' E 023°05'0 0.0
2018-Jul-18 07:28N 37°55' E 023°05'0 0.0
2018-Jul-18 06:58N 37°55' E 023°05'0 0.0
2018-Jul-18 06:28N 37°55' E 023°05'0 0.0
2018-Jul-18 05:58N 37°55' E 023°05'0 0.0
2018-Jul-18 05:28N 37°55' E 023°05'0 0.0
2018-Jul-18 04:58N 37°55' E 023°05'0 0.0
2018-Jul-18 04:28N 37°55' E 023°05'0 0.0
2018-Jul-18 03:58N 37°55' E 023°05'0 0.0
2018-Jul-18 03:28N 37°55' E 023°05'0 0.0
2018-Jul-18 02:58N 37°55' E 023°05'0 0.0
2018-Jul-18 02:28N 37°55' E 023°05'0 0.0
2018-Jul-18 01:58N 37°55' E 023°05'0 0.0
2018-Jul-18 01:28N 37°55' E 023°05'0 0.0
2018-Jul-18 00:58N 37°55' E 023°05'0 0.0
2018-Jul-18 00:28N 37°55' E 023°05'0 0.0
2018-Jul-17 23:58N 37°55' E 023°05'0 0.0
2018-Jul-17 23:28N 37°55' E 023°05'0 0.0
2018-Jul-17 22:58N 37°55' E 023°05'0 0.0
2018-Jul-17 22:28N 37°55' E 023°05'0 0.0
2018-Jul-17 21:58N 37°55' E 023°05'0 0.0
2018-Jul-17 21:28N 37°55' E 023°05'0 0.0
2018-Jul-17 20:58N 37°55' E 023°05'0 0.0
2018-Jul-17 20:28N 37°55' E 023°05'0 0.0
2018-Jul-17 19:58N 37°55' E 023°05'0 0.0
2018-Jul-17 19:28N 37°55' E 023°05'0 0.0
2018-Jul-17 18:58N 37°55' E 023°05'0 0.0
2018-Jul-17 18:28N 37°55' E 023°05'0 0.0
2018-Jul-17 17:58N 37°55' E 023°05'0 0.0
2018-Jul-17 17:28N 37°55' E 023°05'0 0.0
2018-Jul-17 16:58N 37°55' E 023°05'0 0.0
2018-Jul-17 16:28N 37°55' E 023°05'0 0.1
2018-Jul-17 16:00N 37°55' E 023°05'1 1.3
2018-Jul-17 15:29N 37°55' E 023°06'0 0.1
2018-Jul-17 14:59N 37°55' E 023°06'0 0.1
2018-Jul-17 14:29N 37°55' E 023°06'0 0.0
2018-Jul-17 13:59N 37°55' E 023°06'0 0.0
2018-Jul-17 13:29N 37°55' E 023°06'0 0.0
2018-Jul-17 12:59N 37°55' E 023°06'0 0.0
2018-Jul-17 12:29N 37°55' E 023°06'0 0.0
2018-Jul-17 11:59N 37°55' E 023°06'0 0.3
2018-Jul-17 11:30N 37°55' E 023°06'4 7.4
2018-Jul-17 11:00N 37°52' E 023°09'4 8.2
2018-Jul-17 10:30N 37°48' E 023°12'5 9.0
2018-Jul-17 10:00N 37°45' E 023°15'4 8.9
2018-Jul-17 09:30N 37°41' E 023°18'4 9.0
2018-Jul-17 09:00N 37°39' E 023°23'4 9.0
2018-Jul-17 08:30N 37°38' E 023°28'4 8.7
2018-Jul-17 08:00N 37°35' E 023°32'4 8.5
2018-Jul-17 07:30N 37°31' E 023°35'4 8.9
2018-Jul-17 07:00N 37°27' E 023°36'4 8.9
2018-Jul-17 06:30N 37°22' E 023°36'5 8.9
2018-Jul-17 06:00N 37°18' E 023°37'83 8.9
2018-Jul-16 20:38N 35°57' E 023°58'1 8.9
2018-Jul-16 20:30N 35°55' E 023°58'12 8.7
2018-Jul-16 19:08N 35°44' E 024°01'1 8.6
2018-Jul-16 19:00N 35°42' E 024°01'4 8.7
2018-Jul-16 18:30N 35°38' E 024°02'113 2.7
2018-Jul-15 01:12N 37°29' E 023°35'2 8.5
2018-Jul-15 01:00N 37°31' E 023°35'4 8.4
2018-Jul-15 00:30N 37°35' E 023°33'4 8.2
2018-Jul-15 00:00N 37°38' E 023°29'4 8.2
2018-Jul-14 23:30N 37°39' E 023°24'4 8.0
2018-Jul-14 23:00N 37°40' E 023°19'4 7.6
2018-Jul-14 22:28N 37°44' E 023°17'4 8.3
2018-Jul-14 22:00N 37°47' E 023°14'4 8.1
2018-Jul-14 21:30N 37°50' E 023°11'4 8.4
2018-Jul-14 21:00N 37°53' E 023°08'3 4.7
2018-Jul-14 20:28N 37°55' E 023°05'0 0.0
2018-Jul-14 19:58N 37°55' E 023°05'0 0.0
2018-Jul-14 19:28N 37°55' E 023°05'0 0.0
2018-Jul-14 18:58N 37°55' E 023°05'0 0.0
2018-Jul-14 18:28N 37°55' E 023°05'0 0.0
2018-Jul-14 17:58N 37°55' E 023°05'0 0.0
2018-Jul-14 17:28N 37°55' E 023°05'0 0.0
2018-Jul-14 16:58N 37°55' E 023°05'0 0.0
2018-Jul-14 16:28N 37°55' E 023°05'0 0.0
2018-Jul-14 15:58N 37°55' E 023°05'0 0.0
2018-Jul-14 15:28N 37°55' E 023°05'0 0.0
2018-Jul-14 14:58N 37°55' E 023°05'0 0.0
2018-Jul-14 14:28N 37°55' E 023°05'0 0.0
2018-Jul-14 13:28N 37°55' E 023°05'0 0.0
2018-Jul-14 12:58N 37°55' E 023°05'0 0.0
2018-Jul-14 12:28N 37°55' E 023°05'0 0.0
2018-Jul-14 11:58N 37°55' E 023°05'0 0.0
2018-Jul-14 11:28N 37°55' E 023°05'0 0.0
2018-Jul-14 10:58N 37°55' E 023°05'0 0.0
2018-Jul-14 10:28N 37°55' E 023°05'0 0.0
2018-Jul-14 09:58N 37°55' E 023°05'0 0.0
2018-Jul-14 09:28N 37°55' E 023°05'0 0.0
2018-Jul-14 08:58N 37°55' E 023°05'0 0.0
2018-Jul-14 08:28N 37°55' E 023°05'0 0.0
2018-Jul-14 07:58N 37°55' E 023°05'0 0.0
2018-Jul-14 07:28N 37°55' E 023°05'0 0.0
2018-Jul-14 06:58N 37°55' E 023°05'0 0.0
2018-Jul-14 06:28N 37°55' E 023°05'0 0.0
2018-Jul-14 05:58N 37°55' E 023°05'0 0.0
2018-Jul-14 05:28N 37°55' E 023°05'0 0.0
2018-Jul-14 04:58N 37°55' E 023°05'0 0.0
2018-Jul-14 04:28N 37°55' E 023°05'0 0.0
2018-Jul-14 03:58N 37°55' E 023°05'0 0.0
2018-Jul-14 03:28N 37°55' E 023°05'0 0.0
2018-Jul-14 02:58N 37°55' E 023°05'0 0.0
2018-Jul-14 02:28N 37°55' E 023°05'0 0.0
2018-Jul-14 01:58N 37°55' E 023°05'0 0.0
2018-Jul-14 01:28N 37°55' E 023°05'0 0.0
2018-Jul-14 01:01N 37°55' E 023°05'0 0.7
2018-Jul-14 00:30N 37°55' E 023°06'1 1.9
2018-Jul-14 00:00N 37°55' E 023°04'0 0.1
2018-Jul-13 23:30N 37°55' E 023°04'0 0.1
2018-Jul-13 23:00N 37°55' E 023°04'0 0.0
2018-Jul-13 22:30N 37°55' E 023°04'0 0.1
2018-Jul-13 22:00N 37°55' E 023°04'0 0.1
2018-Jul-13 21:30N 37°55' E 023°04'0 0.1
2018-Jul-13 21:00N 37°55' E 023°04'0 0.0
2018-Jul-13 20:30N 37°55' E 023°04'0 0.0
2018-Jul-13 20:00N 37°55' E 023°04'0 0.0
2018-Jul-13 19:30N 37°55' E 023°04'0 0.0
2018-Jul-13 19:00N 37°55' E 023°04'0 0.0
2018-Jul-13 18:30N 37°55' E 023°04'0 0.0
2018-Jul-13 18:00N 37°55' E 023°04'0 0.0
2018-Jul-13 17:30N 37°55' E 023°04'0 0.0
2018-Jul-13 17:00N 37°55' E 023°04'0 0.0
2018-Jul-13 16:30N 37°55' E 023°04'0 0.0
2018-Jul-13 16:00N 37°55' E 023°04'0 0.0
2018-Jul-13 15:30N 37°55' E 023°04'0 0.2
2018-Jul-13 15:00N 37°55' E 023°04'0 0.0
2018-Jul-13 14:00N 37°55' E 023°04'0 0.1
2018-Jul-13 13:30N 37°55' E 023°04'0 0.0
2018-Jul-13 13:00N 37°55' E 023°04'0 0.0
2018-Jul-13 12:30N 37°55' E 023°04'0 0.0
2018-Jul-13 12:00N 37°55' E 023°04'0 0.0
2018-Jul-13 11:30N 37°55' E 023°04'0 0.0
2018-Jul-13 10:54N 37°55' E 023°04'0 0.0
2018-Jul-13 10:30N 37°55' E 023°04'0 0.0
2018-Jul-13 10:00N 37°55' E 023°04'0 0.0
2018-Jul-13 09:30N 37°55' E 023°04'0 0.0
2018-Jul-13 09:00N 37°55' E 023°04'0 0.0
2018-Jul-13 08:30N 37°55' E 023°04'0 0.0
2018-Jul-13 08:00N 37°55' E 023°04'0 0.0
2018-Jul-13 07:30N 37°55' E 023°04'0 0.0
2018-Jul-13 07:00N 37°55' E 023°04'0 0.0
2018-Jul-13 06:30N 37°55' E 023°04'0 0.0
2018-Jul-13 06:00N 37°55' E 023°04'0 0.0
2018-Jul-13 05:30N 37°55' E 023°04'0 0.0
2018-Jul-13 05:00N 37°55' E 023°04'0 0.0
2018-Jul-13 04:30N 37°55' E 023°04'0 0.0
2018-Jul-13 04:00N 37°55' E 023°04'0 0.0
2018-Jul-13 03:30N 37°55' E 023°04'0 0.0
2018-Jul-13 03:00N 37°55' E 023°04'0 0.0
2018-Jul-13 02:30N 37°55' E 023°04'0 0.0
2018-Jul-13 02:00N 37°55' E 023°04'0 0.1
2018-Jul-13 01:27N 37°55' E 023°04'0 0.0
2018-Jul-13 01:00N 37°55' E 023°04'0 0.0
2018-Jul-13 00:30N 37°55' E 023°04'0 0.0
2018-Jul-13 00:00N 37°55' E 023°04'0 0.0
2018-Jul-12 23:30N 37°55' E 023°04'0 0.0
2018-Jul-12 23:00N 37°55' E 023°04'0 0.0
2018-Jul-12 22:30N 37°55' E 023°04'0 0.0
2018-Jul-12 22:00N 37°55' E 023°04'0 0.0
2018-Jul-12 21:30N 37°55' E 023°04'0 0.0
2018-Jul-12 21:00N 37°55' E 023°04'0 0.1
2018-Jul-12 20:30N 37°55' E 023°04'0 0.0
2018-Jul-12 20:00N 37°55' E 023°04'0 0.0
2018-Jul-12 19:30N 37°55' E 023°04'0 0.0
2018-Jul-12 19:00N 37°55' E 023°04'0 0.0
2018-Jul-12 18:30N 37°55' E 023°04'0 0.1
2018-Jul-12 18:00N 37°54' E 023°04'0 0.1
2018-Jul-12 17:30N 37°55' E 023°04'0 0.1
2018-Jul-12 17:00N 37°55' E 023°04'0 0.1
2018-Jul-12 16:31N 37°55' E 023°04'0 0.0
2018-Jul-12 15:59N 37°55' E 023°04'0 0.0
2018-Jul-12 15:31N 37°55' E 023°04'0 0.0
2018-Jul-12 15:00N 37°55' E 023°04'1 2.1
2018-Jul-12 14:30N 37°54' E 023°06'4 8.5
2018-Jul-12 14:01N 37°52' E 023°10'4 9.0
2018-Jul-12 13:31N 37°48' E 023°13'5 9.0
2018-Jul-12 13:00N 37°44' E 023°16'4 9.0
2018-Jul-12 12:30N 37°40' E 023°19'4 8.9
2018-Jul-12 12:00N 37°39' E 023°24'4 8.7
2018-Jul-12 11:30N 37°37' E 023°29'4 8.8
2018-Jul-12 11:00N 37°34' E 023°33'4 8.1
2018-Jul-12 10:31N 37°31' E 023°35'4 8.5
2018-Jul-12 09:59N 37°26' E 023°36'4 8.5
2018-Jul-12 09:28N 37°22' E 023°37'  

Dump ship's entire track history